Погода Калинковичина 2 недели

Гомельская область, Белоруссия

18 - 31 июля
  • 18июля
    Сегодня
    +17°
    +28°
    Небольшая облачность, ливень
    ВремяПогодаТемператураВлажностьДавлениеВетер, м/сВероятность осадков
    00:00Ясно и безоблачно+24°C77 %752 мм0.7 м/с2 %
    03:00Практически безоблачно+23°C87 %752 мм0.6 м/с2 %
    06:00Ясно и безоблачно+22°C88 %752 мм0.8 м/с2 %
    09:00Облачно с прояснениями+25°C73 %752 мм0.8 м/с2 %
    12:00Облачно с прояснениями+26°C58 %752 мм1.0 м/с18 %
    15:00Небольшая облачность, ливень+24°C74 %752 мм0.9 м/с61 %
    18:00Облачно с прояснениями, небольшой дождь+23°C75 %751 мм2.1 м/с64 %
    21:00Ясно и безоблачно+22°C81 %752 мм0.8 м/с12 %
  • 19июля
    Пятница
    +15°
    +26°
    Ясно и безоблачно
    ВремяПогодаТемператураВлажностьДавлениеВетер, м/сВероятность осадков
    00:00Ясно и безоблачно+20°C87 %752 мм0.9 м/с6 %
    03:00Ясно и безоблачно+19°C92 %752 мм1.1 м/с2 %
    06:00Ясно и безоблачно+18°C90 %752 мм1.2 м/с2 %
    09:00Небольшая облачность+21°C65 %752 мм1.5 м/с2 %
    12:00Небольшая облачность+24°C48 %752 мм1.8 м/с3 %
    15:00Ясно и безоблачно+26°C38 %751 мм2.3 м/с1 %
    18:00Ясно и безоблачно+24°C40 %750 мм2.5 м/с2 %
    21:00Ясно и безоблачно+21°C52 %750 мм0.8 м/с2 %
  • 20июля
    Суббота
    +14°
    +26°
    Ясно и безоблачно
    ВремяПогодаТемператураВлажностьДавлениеВетер, м/сВероятность осадков
    00:00Ясно и безоблачно+18°C70 %750 мм0.8 м/с2 %
    03:00Ясно и безоблачно+17°C78 %750 мм0.6 м/с2 %
    06:00Ясно и безоблачно+15°C81 %749 мм0.9 м/с2 %
    09:00Ясно и безоблачно+20°C62 %749 мм1.1 м/с2 %
    12:00Ясно и безоблачно+24°C44 %749 мм1.7 м/с3 %
    15:00Ясно и безоблачно+26°C35 %748 мм2.0 м/с5 %
    18:00Облачно с прояснениями+24°C35 %747 мм2.2 м/с2 %
    21:00Ясно и безоблачно+21°C51 %747 мм0.5 м/с2 %
  • 21июля
    Воскресенье
    +16°
    +27°
    Практически безоблачно
    ВремяПогодаТемператураВлажностьДавлениеВетер, м/сВероятность осадков
    00:00Практически безоблачно+19°C61 %747 мм0.7 м/с2 %
    03:00Облачно с прояснениями+17°C79 %747 мм0.3 м/с2 %
    06:00Облачно с прояснениями+15°C83 %747 мм0.5 м/с2 %
    09:00Практически безоблачно+20°C57 %747 мм0.6 м/с2 %
    12:00Практически безоблачно+24°C44 %747 мм1.3 м/с10 %
    15:00Практически безоблачно+27°C40 %747 мм1.3 м/с23 %
    18:00Практически безоблачно+26°C38 %746 мм1.9 м/с14 %
    21:00Ясно и безоблачно+23°C51 %746 мм0.5 м/с5 %
  • 22июля
    Понедельник
    +16°
    +28°
    Ясно и безоблачно
    ВремяПогодаТемператураВлажностьДавлениеВетер, м/сВероятность осадков
    00:00Ясно и безоблачно+20°C69 %746 мм0.6 м/с2 %
    03:00Ясно и безоблачно+19°C71 %746 мм0.4 м/с2 %
    06:00Ясно и безоблачно+17°C83 %746 мм0.5 м/с2 %
    09:00Ясно и безоблачно+22°C52 %746 мм0.6 м/с3 %
    12:00Практически безоблачно+26°C38 %746 мм1.4 м/с15 %
    15:00Ясно и безоблачно+28°C34 %746 мм1.4 м/с27 %
    18:00Ясно и безоблачно+26°C33 %745 мм1.8 м/с26 %
    21:00Ясно и безоблачно+23°C47 %746 мм0.4 м/с9 %
Мы используем cookies
Соглашаюсь